Time;durP1;ratioP1;P1;durP2;ratioP2;P2;SDS_P1;SDS_P2;PMS_P1;PMS_P2;Temp;Humidity;BMP_temperature;BMP_pressure;BME280_temperature;BME280_humidity;BME280_pressure;Samples;Min_cycle;Max_cycle;Signal;HPM_P1;HPM_P2
2023/03/26 00:00:53;;;;;;;;;;;;;;;;;;5090340;28;7604;-68
2023/03/26 00:03:19;;;;;;;;;;;;;;;;;;5090223;28;7520;-69
2023/03/26 00:05:46;;;;;;;;;;;;;;;;;;5088745;28;8006;-69
2023/03/26 00:08:12;;;;;;;;;;;;;;;;;;5060656;28;7558;-69
2023/03/26 00:10:37;;;;;;;;;;;;;;;;;;5079436;28;7528;-69
2023/03/26 00:13:02;;;;;;;;;;;;;;;;;;5079945;28;7547;-69
2023/03/26 00:15:27;;;;;;;;;;;;;;;;;;5080870;28;7520;-69
2023/03/26 00:17:53;;;;;;;;;;;;;;;;;;5078858;28;8014;-69
2023/03/26 00:20:18;;;;;;;;;;;;;;;;;;5080369;28;7552;-69
2023/03/26 00:22:44;;;;;;;;;;;;;;;;;;5080174;28;7516;-69
2023/03/26 00:25:09;;;;;;;;;;;;;;;;;;5078774;28;7556;-69
2023/03/26 00:27:34;;;;;;;;;;;;;;;;;;5072073;28;7544;-69
2023/03/26 00:30:00;;;;;;;;;;;;;;;;;;5069811;28;7529;-69
2023/03/26 00:32:26;;;;;;;;;;;;;;;;;;5071018;28;7521;-70
2023/03/26 00:34:53;;;;;;;;;;;;;;;;;;5070941;28;7548;-69
2023/03/26 00:37:19;;;;;;;;;;;;;;;;;;5070968;28;7524;-69
2023/03/26 00:39:48;;;;;;;;;;;;;;;;;;5070843;28;7520;-69
2023/03/26 00:42:15;;;;;;;;;;;;;;;;;;5070473;28;7526;-69
2023/03/26 00:44:40;;;;;;;;;;;;;;;;;;5070785;28;7528;-69
2023/03/26 00:47:06;;;;;;;;;;;;;;;;;;5071129;28;7532;-70
2023/03/26 00:49:31;;;;;;;;;;;;;;;;;;5070813;28;7524;-70
2023/03/26 00:51:57;;;;;;;;;;;;;;;;;;5052820;28;7505;-70
2023/03/26 00:54:22;;;;;;;;;;;;;;;;;;5070843;28;7520;-70
2023/03/26 00:56:47;;;;;;;;;;;;;;;;;;5070637;28;7630;-70
2023/03/26 00:59:12;;;;;;;;;;;;;;;;;;5070833;28;7524;-70
2023/03/26 01:01:38;;;;;;;;;;;;;;;;;;5052738;28;7524;-72
2023/03/26 01:04:03;;;;;;;;;;;;;;;;;;5070611;28;7956;-74
2023/03/26 01:06:31;;;;;;;;;;;;;;;;;;5078705;28;7535;-71
2023/03/26 01:08:59;;;;;;;;;;;;;;;;;;5091163;28;7527;-70
2023/03/26 01:11:24;;;;;;;;;;;;;;;;;;5090915;28;7531;-70
2023/03/26 01:13:49;;;;;;;;;;;;;;;;;;5089420;28;7512;-70
2023/03/26 01:16:18;;;;;;;;;;;;;;;;;;5090866;28;7520;-71
2023/03/26 01:18:44;;;;;;;;;;;;;;;;;;5090884;28;7527;-71
2023/03/26 01:21:12;;;;;;;;;;;;;;;;;;5090828;28;7532;-69
2023/03/26 01:23:37;;;;;;;;;;;;;;;;;;5090851;28;7516;-69
2023/03/26 01:26:03;;;;;;;;;;;;;;;;;;5090837;28;7536;-70
2023/03/26 01:28:28;;;;;;;;;;;;;;;;;;5089212;28;7544;-69
2023/03/26 01:30:57;;;;;;;;;;;;;;;;;;5090626;28;7528;-69
2023/03/26 01:33:25;;;;;;;;;;;;;;;;;;5090860;28;7524;-69
2023/03/26 01:35:50;;;;;;;;;;;;;;;;;;5090857;28;7967;-69
2023/03/26 01:38:15;;;;;;;;;;;;;;;;;;5090648;28;7649;-69
2023/03/26 01:40:45;;;;;;;;;;;;;;;;;;5090631;28;7524;-69
2023/03/26 01:43:10;;;;;;;;;;;;;;;;;;5090618;28;7987;-69
2023/03/26 01:45:35;;;;;;;;;;;;;;;;;;5090950;28;7527;-70
2023/03/26 01:48:01;;;;;;;;;;;;;;;;;;5089478;28;7967;-69
2023/03/26 01:50:26;;;;;;;;;;;;;;;;;;5089116;28;7520;-70
2023/03/26 01:52:51;;;;;;;;;;;;;;;;;;5090063;28;7611;-70
2023/03/26 01:55:16;;;;;;;;;;;;;;;;;;5092937;28;7517;-70
2023/03/26 01:57:41;;;;;;;;;;;;;;;;;;5092953;28;7603;-69
2023/03/26 02:00:10;;;;;;;;;;;;;;;;;;5094187;28;7584;-69
2023/03/26 02:02:37;;;;;;;;;;;;;;;;;;5094211;28;7508;-69
2023/03/26 02:05:02;;;;;;;;;;;;;;;;;;5094249;28;7521;-69
2023/03/26 02:07:27;;;;;;;;;;;;;;;;;;5094029;28;7540;-69
2023/03/26 02:09:52;;;;;;;;;;;;;;;;;;5093953;28;7532;-69
2023/03/26 02:12:17;;;;;;;;;;;;;;;;;;5093827;28;7627;-69
2023/03/26 02:14:43;;;;;;;;;;;;;;;;;;5093881;28;7524;-69
2023/03/26 02:17:09;;;;;;;;;;;;;;;;;;5093915;28;7976;-69
2023/03/26 02:19:34;;;;;;;;;;;;;;;;;;5093823;28;7524;-69
2023/03/26 02:21:59;;;;;;;;;;;;;;;;;;5093689;28;7552;-69
2023/03/26 02:24:24;;;;;;;;;;;;;;;;;;5093679;28;7524;-70
2023/03/26 02:26:50;;;;;;;;;;;;;;;;;;5092324;28;7528;-69
2023/03/26 02:29:19;;;;;;;;;;;;;;;;;;5093663;28;7532;-70
2023/03/26 02:31:45;;;;;;;;;;;;;;;;;;5093850;28;7573;-70
2023/03/26 02:34:10;;;;;;;;;;;;;;;;;;5094071;28;7520;-70
2023/03/26 02:36:35;;;;;;;;;;;;;;;;;;5092292;28;7553;-69
2023/03/26 02:39:00;;;;;;;;;;;;;;;;;;5093485;28;7624;-69
2023/03/26 02:41:25;;;;;;;;;;;;;;;;;;5093555;28;7991;-69
2023/03/26 02:43:51;;;;;;;;;;;;;;;;;;5093364;28;7528;-70
2023/03/26 02:46:16;;;;;;;;;;;;;;;;;;5093447;28;7540;-69
2023/03/26 02:48:41;;;;;;;;;;;;;;;;;;5093236;28;7524;-69
2023/03/26 02:51:06;;;;;;;;;;;;;;;;;;5092997;28;7603;-69
2023/03/26 02:53:31;;;;;;;;;;;;;;;;;;5093375;28;7615;-69
2023/03/26 02:55:56;;;;;;;;;;;;;;;;;;5091879;28;7516;-69
2023/03/26 02:58:24;;;;;;;;;;;;;;;;;;5093078;28;7524;-69
2023/03/26 03:00:49;;;;;;;;;;;;;;;;;;5093020;28;7520;-69
2023/03/26 03:03:15;;;;;;;;;;;;;;;;;;5092911;28;7528;-68
2023/03/26 03:05:42;;;;;;;;;;;;;;;;;;5092854;28;7516;-68
2023/03/26 03:08:07;;;;;;;;;;;;;;;;;;5093027;28;7528;-68
2023/03/26 03:10:32;;;;;;;;;;;;;;;;;;5092825;28;7532;-69
2023/03/26 03:12:57;;;;;;;;;;;;;;;;;;5092663;28;7607;-69
2023/03/26 03:15:22;;;;;;;;;;;;;;;;;;5093089;28;7531;-70
2023/03/26 03:17:47;;;;;;;;;;;;;;;;;;5092996;28;7532;-69
2023/03/26 03:20:12;;;;;;;;;;;;;;;;;;5092855;28;7532;-69
2023/03/26 03:22:37;;;;;;;;;;;;;;;;;;5092627;28;7572;-68
2023/03/26 03:25:03;;;;;;;;;;;;;;;;;;5092690;28;7536;-68
2023/03/26 03:27:28;;;;;;;;;;;;;;;;;;5092621;28;7543;-69
2023/03/26 03:29:55;;;;;;;;;;;;;;;;;;5092543;28;7535;-69
2023/03/26 03:32:21;;;;;;;;;;;;;;;;;;5092504;28;7532;-69
2023/03/26 03:34:48;;;;;;;;;;;;;;;;;;5092538;28;7528;-69
2023/03/26 03:37:13;;;;;;;;;;;;;;;;;;5092620;28;7528;-69
2023/03/26 03:39:39;;;;;;;;;;;;;;;;;;5092532;28;7539;-69
2023/03/26 03:42:04;;;;;;;;;;;;;;;;;;5092457;28;7524;-69
2023/03/26 03:44:29;;;;;;;;;;;;;;;;;;5091159;28;7940;-69
2023/03/26 03:46:55;;;;;;;;;;;;;;;;;;5093104;28;7538;-70
2023/03/26 03:49:21;;;;;;;;;;;;;;;;;;5090976;28;7524;-69
2023/03/26 03:51:46;;;;;;;;;;;;;;;;;;5091003;28;7528;-69
2023/03/26 12:09:34;;;;;;;;;12.00;12.00;;;;;;;;5120527;27;1341024;-71
2023/03/26 12:12:00;;;;;;;;;11.25;9.75;;;;;;;;5144203;27;14025;-71
2023/03/26 12:14:27;;;;;;;;;9.80;9.20;;;;;;;;5141729;27;14121;-71
2023/03/26 12:16:58;;;;;;;;;8.00;8.00;;;;;;;;5144088;27;13889;-71
2023/03/26 12:19:27;;;;;;;;;10.00;9.00;;;;;;;;5143476;27;13407;-71
2023/03/26 12:21:52;;;;;;;;;6.00;6.00;;;;;;;;5143283;27;14141;-69
2023/03/26 12:24:28;;;;;;;;;10.00;8.25;;;;;;;;5141501;27;13348;-71
2023/03/26 12:27:00;;;;;;;;;9.80;9.80;;;;;;;;5144049;27;13509;-72
2023/03/26 12:29:26;;;;;;;;;8.00;7.60;;;;;;;;5143105;27;13416;-72
2023/03/26 12:31:54;;;;;;;;;5.50;5.50;;;;;;;;5143856;27;13328;-71
2023/03/26 12:34:21;;;;;;;;;12.50;11.00;;;;;;;;5129940;27;13352;-71
2023/03/26 12:36:49;;;;;;;;;6.00;6.00;;;;;;;;5122734;27;13363;-72
2023/03/26 12:39:36;;;;;;;;;8.50;8.50;;;;;;;;5126773;27;13309;-71
2023/03/26 12:42:04;;;;;;;;;6.00;4.50;;;;;;;;5133669;27;13350;-79
2023/03/26 12:44:35;;;;;;;;;3.00;3.00;;;;;;;;5124564;27;13223;-73
2023/03/26 12:47:24;;;;;;;;;6.40;5.20;;;;;;;;5143631;27;13508;-75
2023/03/26 12:49:50;;;;;;;;;5.50;4.25;;;;;;;;5143362;27;13337;-74
2023/03/26 12:52:27;;;;;;;;;10.20;7.60;;;;;;;;5143830;27;13345;-78
2023/03/26 12:55:01;;;;;;;;;9.00;8.00;;;;;;;;5141303;27;14217;-74
2023/03/26 12:57:31;;;;;;;;;4.25;4.00;;;;;;;;5143415;27;13522;-74
2023/03/26 13:00:08;;;;;;;;;4.75;4.75;;;;;;;;5142735;27;13392;-74
2023/03/26 13:02:59;;;;;;;;;6.00;5.00;;;;;;;;5140628;27;13335;-73
2023/03/26 13:05:35;;;;;;;;;6.50;4.00;;;;;;;;5059016;28;13497;-74
2023/03/26 13:08:03;;;;;;;;;4.00;4.00;;;;;;;;5058462;28;13778;-74
2023/03/26 13:10:48;;;;;;;;;3.00;3.00;;;;;;;;5045720;28;13463;-74
2023/03/26 13:13:31;;;;;;;;;4.00;4.00;;;;;;;;5040376;28;13535;-76
2023/03/26 13:16:02;;;;;;;;;8.00;6.00;;;;;;;;5042133;28;13490;-74
2023/03/26 13:18:30;;;;;;;;;13.50;13.00;;;;;;;;5059193;28;13471;-74
2023/03/26 13:21:24;;;;;;;;;6.00;5.00;;;;;;;;5031363;28;13543;-73
2023/03/26 13:24:24;;;;;;;;;23.50;19.50;;;;;;;;4984365;28;13537;-73
2023/03/26 13:26:52;;;;;;;;;9.25;8.75;;;;;;;;4982370;28;13611;-74
2023/03/26 13:29:29;;;;;;;;;7.00;7.00;;;;;;;;4985827;28;13649;-78
2023/03/26 13:32:14;;;;;;;;;3.25;3.00;;;;;;;;4986521;28;13523;-74
2023/03/26 13:34:40;;;;;;;;;2.50;2.50;;;;;;;;4890698;28;13307;-85
2023/03/26 13:37:23;;;;;;;;;4.25;4.25;;;;;;;;4988668;28;13453;-82
2023/03/26 13:40:08;;;;;;;;;2.25;2.25;;;;;;;;4990120;28;13376;-72
2023/03/26 13:42:36;;;;;;;;;4.00;3.00;;;;;;;;5031206;28;13365;-81
2023/03/26 13:45:10;;;;;;;;;2.00;2.00;;;;;;;;5043292;28;13938;-76
2023/03/26 13:47:42;;;;;;;;;5.80;4.00;;;;;;;;5045123;28;13350;-75
2023/03/26 13:50:25;;;;;;;;;5.75;4.00;;;;;;;;5035851;28;13347;-77
2023/03/26 13:52:51;;;;;;;;;4.20;4.20;;;;;;;;5042380;28;13303;-78
2023/03/26 13:55:36;;;;;;;;;3.00;3.00;;;;;;;;5028642;28;13337;-75
2023/03/26 13:58:07;;;;;;;;;3.00;3.00;;;;;;;;5045164;28;13433;-75
2023/03/26 14:00:54;;;;;;;;;3.20;3.20;;;;;;;;5064986;28;13265;-77
2023/03/26 14:03:20;;;;;;;;;3.25;2.25;;;;;;;;5085988;28;13365;-75
2023/03/26 14:05:47;;;;;;;;;4.33;3.00;;;;;;;;5087527;28;13349;-75
2023/03/26 14:08:23;;;;;;;;;4.00;4.00;;;;;;;;5087302;28;13301;-76
2023/03/26 14:11:06;;;;;;;;;5.00;4.00;;;;;;;;5068874;28;13385;-78
2023/03/26 14:13:38;;;;;;;;;3.00;2.80;;;;;;;;5062405;28;13324;-77
2023/03/26 14:16:09;;;;;;;;;3.75;3.25;;;;;;;;5087509;28;13291;-74
2023/03/26 14:18:53;;;;;;;;;4.00;4.00;;;;;;;;5079395;28;13295;-77
2023/03/26 14:21:35;;;;;;;;;3.00;3.00;;;;;;;;5084561;28;13886;-76
2023/03/26 14:24:23;;;;;;;;;4.00;2.00;;;;;;;;5085391;28;13266;-78
2023/03/26 14:26:48;;;;;;;;;2.75;2.75;;;;;;;;5076274;28;13253;-79
2023/03/26 14:29:26;;;;;;;;;5.00;3.00;;;;;;;;5086923;28;13271;-85
2023/03/26 14:32:16;;;;;;;;;4.75;4.75;;;;;;;;5086127;28;13274;-78
2023/03/26 14:34:44;;;;;;;;;3.00;3.00;;;;;;;;5085369;28;13455;-73
2023/03/26 14:37:28;;;;;;;;;4.00;4.00;;;;;;;;5086623;28;13397;-72
2023/03/26 14:40:00;;;;;;;;;3.00;3.00;;;;;;;;5068205;28;13278;-72
2023/03/26 14:42:40;;;;;;;;;8.00;4.20;;;;;;;;5066896;28;13380;-72
2023/03/26 14:45:29;;;;;;;;;6.75;5.50;;;;;;;;5068490;28;13303;-74
2023/03/26 14:48:04;;;;;;;;;4.80;2.80;;;;;;;;5086353;28;13385;-72
2023/03/26 14:50:41;;;;;;;;;3.00;3.00;;;;;;;;5086539;28;13394;-73
2023/03/26 14:53:39;;;;;;;;;3.80;3.20;;;;;;;;5079049;28;13320;-78
2023/03/26 14:56:23;;;;;;;;;6.25;4.75;;;;;;;;5074862;28;13292;-75
2023/03/26 14:59:09;;;;;;;;;5.50;5.00;;;;;;;;5075303;28;13326;-76
2023/03/26 15:01:57;;;;;;;;;4.50;4.50;;;;;;;;5074593;28;13291;-70
2023/03/26 15:04:42;;;;;;;;;3.75;3.75;;;;;;;;5067526;28;13280;-71
2023/03/26 15:07:22;;;;;;;;;3.75;3.50;;;;;;;;5066172;28;13307;-73
2023/03/26 15:10:06;;;;;;;;;6.00;3.75;;;;;;;;5072253;28;13463;-73
2023/03/26 15:12:52;;;;;;;;;5.80;4.40;;;;;;;;5085045;28;13406;-78
2023/03/26 15:15:36;;;;;;;;;6.40;4.60;;;;;;;;5082149;28;14433;-76
2023/03/26 15:18:37;;;;;;;;;5.00;4.00;;;;;;;;5081248;28;13318;-75
2023/03/26 15:21:17;;;;;;;;;5.00;4.00;;;;;;;;4988343;28;13514;-73
2023/03/26 15:23:56;;;;;;;;;4.00;4.00;;;;;;;;5048925;28;13464;-75
2023/03/26 15:26:27;;;;;;;;;3.00;3.00;;;;;;;;5085976;28;13463;-74
2023/03/26 15:29:08;;;;;;;;;8.75;6.00;;;;;;;;5084971;28;13320;-71
2023/03/26 15:31:59;;;;;;;;;4.00;4.00;;;;;;;;5086003;28;13257;-71
2023/03/26 15:34:41;;;;;;;;;6.00;3.75;;;;;;;;5067658;28;13270;-72
2023/03/26 15:37:28;;;;;;;;;3.40;3.00;;;;;;;;5084824;28;12949;-73
2023/03/26 15:40:11;;;;;;;;;3.00;3.00;;;;;;;;5085481;28;13244;-72
2023/03/26 15:42:52;;;;;;;;;4.00;4.00;;;;;;;;5085919;28;13251;-75
2023/03/26 15:45:27;;;;;;;;;3.75;3.75;;;;;;;;5067444;28;13435;-71
2023/03/26 15:47:55;;;;;;;;;4.80;4.80;;;;;;;;5083562;28;14058;-73
2023/03/26 15:50:36;;;;;;;;;4.00;4.00;;;;;;;;5066890;28;14158;-74
2023/03/26 15:53:05;;;;;;;;;7.25;3.25;;;;;;;;5065405;28;13300;-74
2023/03/26 15:55:41;;;;;;;;;5.00;5.00;;;;;;;;5065131;28;13355;-76
2023/03/26 15:58:29;;;;;;;;;5.50;4.50;;;;;;;;5078430;28;14013;-74
2023/03/26 16:01:04;;;;;;;;;4.00;4.00;;;;;;;;5084311;28;13287;-75
2023/03/26 16:03:46;;;;;;;;;3.00;2.60;;;;;;;;5081979;28;13390;-72
2023/03/26 16:06:18;;;;;;;;;5.40;4.00;;;;;;;;5082674;28;13260;-74
2023/03/26 16:08:52;;;;;;;;;8.75;7.00;;;;;;;;5084234;28;14191;-73
2023/03/26 16:11:36;;;;;;;;;7.80;6.60;;;;;;;;5083768;28;13181;-73
2023/03/26 16:14:20;;;;;;;;;7.80;7.00;;;;;;;;5065581;28;13267;-72
2023/03/26 16:16:51;;;;;;;;;10.50;8.00;;;;;;;;5081075;28;13261;-71
2023/03/26 16:19:19;;;;;;;;;5.00;5.00;;;;;;;;5085043;28;13436;-71
2023/03/26 16:21:51;;;;;;;;;9.00;6.50;;;;;;;;5075317;28;13372;-68
2023/03/26 16:24:19;;;;;;;;;7.00;7.00;;;;;;;;5065420;28;13343;-69
2023/03/26 16:26:50;;;;;;;;;7.00;7.00;;;;;;;;5065458;28;13305;-70
2023/03/26 16:29:24;;;;;;;;;7.75;5.00;;;;;;;;5065134;28;13331;-70
2023/03/26 16:32:08;;;;;;;;;11.50;10.00;;;;;;;;5081458;28;13302;-71
2023/03/26 16:35:00;;;;;;;;;8.80;8.80;;;;;;;;5078211;28;13338;-70
2023/03/26 16:37:38;;;;;;;;;8.00;8.00;;;;;;;;5037323;28;13336;-70
2023/03/26 16:40:26;;;;;;;;;8.00;8.00;;;;;;;;5069232;28;13297;-71
2023/03/26 16:43:07;;;;;;;;;7.00;5.00;;;;;;;;5063878;28;13269;-71
2023/03/26 16:45:36;;;;;;;;;5.00;4.50;;;;;;;;5064724;28;13278;-70
2023/03/26 16:48:01;;;;;;;;;6.50;6.50;;;;;;;;5064993;28;13413;-72
2023/03/26 16:50:45;;;;;;;;;5.00;5.00;;;;;;;;5065044;28;13394;-71
2023/03/26 16:53:28;;;;;;;;;7.25;5.00;;;;;;;;5046729;28;13272;-68
2023/03/26 16:55:58;;;;;;;;;9.75;7.00;;;;;;;;5067873;28;13371;-69
2023/03/26 16:58:42;;;;;;;;;10.00;8.00;;;;;;;;5068130;28;13457;-69
2023/03/26 17:01:20;;;;;;;;;8.00;7.80;;;;;;;;5068408;28;13359;-68
2023/03/26 17:03:58;;;;;;;;;6.60;4.40;;;;;;;;5068526;28;14005;-67
2023/03/26 17:06:45;;;;;;;;;7.60;7.60;;;;;;;;5068130;28;13288;-72
2023/03/26 17:09:23;;;;;;;;;10.25;7.75;;;;;;;;5068131;28;13299;-69
2023/03/26 17:11:48;;;;;;;;;5.00;5.00;;;;;;;;5083922;28;13309;-70
2023/03/26 17:14:26;;;;;;;;;5.00;5.00;;;;;;;;5078677;28;13264;-69
2023/03/26 17:17:11;;;;;;;;;9.40;6.20;;;;;;;;5086612;28;13975;-69
2023/03/26 17:19:40;;;;;;;;;8.60;7.00;;;;;;;;5053826;28;13315;-71
2023/03/26 17:22:15;;;;;;;;;5.80;5.80;;;;;;;;5087863;28;14043;-71
2023/03/26 17:24:47;;;;;;;;;9.60;8.20;;;;;;;;5088025;28;13261;-71
2023/03/26 17:27:22;;;;;;;;;8.00;8.00;;;;;;;;5086883;28;13283;-74
2023/03/26 17:29:50;;;;;;;;;8.50;6.50;;;;;;;;5085752;28;13283;-73
2023/03/26 17:32:16;;;;;;;;;7.00;5.00;;;;;;;;5088311;28;13316;-69
2023/03/26 17:35:06;;;;;;;;;8.00;8.00;;;;;;;;5087587;28;13929;-72
2023/03/26 17:37:46;;;;;;;;;8.00;8.00;;;;;;;;5069152;28;13382;-68
2023/03/26 17:43:48;;;;;;;;;4.80;4.80;;;;;;;;5088312;28;13260;-72
2023/03/26 17:46:36;;;;;;;;;8.50;6.00;;;;;;;;5088328;28;13268;-72
2023/03/26 17:49:04;;;;;;;;;7.00;7.00;;;;;;;;5087756;28;13377;-69
2023/03/26 17:51:37;;;;;;;;;13.00;7.00;;;;;;;;5088100;28;13257;-68
2023/03/26 17:54:06;;;;;;;;;10.00;8.25;;;;;;;;5086065;28;13315;-69
2023/03/26 17:56:34;;;;;;;;;7.00;5.00;;;;;;;;5087808;28;13896;-79
2023/03/26 17:59:07;;;;;;;;;5.00;5.00;;;;;;;;5087437;28;13246;-74
2023/03/26 18:01:37;;;;;;;;;6.60;6.60;;;;;;;;5067770;28;14004;-71
2023/03/26 18:04:08;;;;;;;;;4.80;4.80;;;;;;;;5069938;28;13306;-67
2023/03/26 18:06:39;;;;;;;;;10.25;8.00;;;;;;;;5087442;28;13302;-68
2023/03/26 18:09:16;;;;;;;;;9.80;5.00;;;;;;;;5086407;28;13402;-68
2023/03/26 18:12:00;;;;;;;;;9.00;8.20;;;;;;;;5087467;28;13356;-70
2023/03/26 18:14:40;;;;;;;;;8.80;8.00;;;;;;;;5085394;28;13262;-71
2023/03/26 18:17:08;;;;;;;;;9.20;5.40;;;;;;;;5087000;28;13360;-68
2023/03/26 18:19:53;;;;;;;;;7.00;5.00;;;;;;;;5086638;28;13531;-68
2023/03/26 18:22:21;;;;;;;;;7.75;5.50;;;;;;;;5087008;28;13388;-68
2023/03/26 18:24:48;;;;;;;;;4.40;4.40;;;;;;;;5085317;28;13311;-70
2023/03/26 18:27:15;;;;;;;;;4.00;4.00;;;;;;;;5087236;28;13330;-68
2023/03/26 18:29:44;;;;;;;;;10.00;10.00;;;;;;;;5086518;28;13320;-69
2023/03/26 18:32:12;;;;;;;;;9.75;9.75;;;;;;;;5086968;28;13313;-69
2023/03/26 18:34:44;;;;;;;;;10.00;10.00;;;;;;;;5085126;28;14511;-68
2023/03/26 18:37:16;;;;;;;;;9.80;7.20;;;;;;;;5086792;28;13291;-69
2023/03/26 18:39:56;;;;;;;;;8.00;7.00;;;;;;;;5086630;28;13888;-68
2023/03/26 18:42:22;;;;;;;;;7.20;7.20;;;;;;;;5086871;28;14141;-69
2023/03/26 18:44:49;;;;;;;;;4.00;4.00;;;;;;;;5085006;28;13301;-71
2023/03/26 18:47:15;;;;;;;;;8.00;8.00;;;;;;;;5068705;28;14082;-68
2023/03/26 18:49:48;;;;;;;;;6.00;4.00;;;;;;;;5086135;28;13310;-73
2023/03/26 18:52:15;;;;;;;;;7.00;7.00;;;;;;;;5072502;28;13417;-73
2023/03/26 18:54:44;;;;;;;;;4.00;4.00;;;;;;;;5074064;28;13419;-72
2023/03/26 18:57:10;;;;;;;;;9.00;4.40;;;;;;;;5068806;28;13296;-73
2023/03/26 18:59:37;;;;;;;;;5.50;4.50;;;;;;;;5085730;28;13684;-74
2023/03/26 19:02:10;;;;;;;;;5.50;5.50;;;;;;;;5086769;28;13365;-72
2023/03/26 19:04:36;;;;;;;;;9.00;4.50;;;;;;;;5078819;28;13392;-76
2023/03/26 19:07:03;;;;;;;;;8.25;5.00;;;;;;;;5085475;28;13291;-73
2023/03/26 19:09:28;;;;;;;;;7.75;6.25;;;;;;;;5083504;28;13312;-72
2023/03/26 19:11:55;;;;;;;;;7.25;5.50;;;;;;;;5084545;28;14182;-73
2023/03/26 19:14:25;;;;;;;;;5.00;5.00;;;;;;;;5084250;28;13283;-73
2023/03/26 19:17:00;;;;;;;;;9.40;6.00;;;;;;;;5085777;28;13401;-73
2023/03/26 19:19:30;;;;;;;;;4.50;4.50;;;;;;;;5085757;28;13330;-71
2023/03/26 19:21:55;;;;;;;;;8.00;7.40;;;;;;;;5085803;28;13411;-73
2023/03/26 19:24:23;;;;;;;;;9.00;7.00;;;;;;;;5083841;28;13398;-74
2023/03/26 19:26:49;;;;;;;;;8.60;7.60;;;;;;;;5085104;28;14245;-72
2023/03/26 19:29:17;;;;;;;;;12.00;7.00;;;;;;;;5085653;28;13478;-72
2023/03/26 19:31:43;;;;;;;;;9.00;7.25;;;;;;;;5085841;28;13244;-72
2023/03/26 19:34:08;;;;;;;;;9.25;8.25;;;;;;;;5085728;28;14037;-71
2023/03/26 19:36:35;;;;;;;;;6.67;6.67;;;;;;;;5064859;28;13255;-69
2023/03/26 19:39:03;;;;;;;;;7.00;6.00;;;;;;;;5084385;28;13282;-69
2023/03/26 19:41:29;;;;;;;;;5.00;4.00;;;;;;;;5066160;28;13460;-69
2023/03/26 19:43:56;;;;;;;;;10.67;6.67;;;;;;;;5081555;28;13290;-69
2023/03/26 19:46:22;;;;;;;;;8.00;8.00;;;;;;;;5081180;28;14514;-73
2023/03/26 19:48:50;;;;;;;;;7.80;5.60;;;;;;;;5084460;28;13291;-68
2023/03/26 19:51:21;;;;;;;;;7.60;6.00;;;;;;;;5084484;28;13566;-75
2023/03/26 19:53:53;;;;;;;;;6.60;4.00;;;;;;;;5081839;28;14018;-70
2023/03/26 19:56:20;;;;;;;;;8.25;5.50;;;;;;;;5085397;28;13277;-70
2023/03/26 19:58:46;;;;;;;;;6.20;6.00;;;;;;;;5081604;28;13315;-70
2023/03/26 20:01:22;;;;;;;;;7.25;6.50;;;;;;;;5079410;28;13591;-70
2023/03/26 20:03:49;;;;;;;;;8.25;6.00;;;;;;;;5080191;28;13398;-70
2023/03/26 20:06:16;;;;;;;;;4.00;3.00;;;;;;;;5083907;28;13456;-69
2023/03/26 20:08:42;;;;;;;;;6.00;3.50;;;;;;;;5083461;28;13440;-70
2023/03/26 20:11:15;;;;;;;;;4.67;3.67;;;;;;;;5083119;28;13437;-70
2023/03/26 20:13:43;;;;;;;;;7.75;3.25;;;;;;;;5084369;28;13388;-72
2023/03/26 20:16:15;;;;;;;;;3.00;3.00;;;;;;;;5065680;28;13901;-73
2023/03/26 20:18:41;;;;;;;;;2.80;2.80;;;;;;;;5083821;28;13410;-71
2023/03/26 20:21:10;;;;;;;;;6.00;2.75;;;;;;;;5081408;28;13581;-71
2023/03/26 20:23:39;;;;;;;;;5.00;5.00;;;;;;;;5083812;28;13389;-71
2023/03/26 20:26:04;;;;;;;;;7.00;4.00;;;;;;;;5083981;28;13432;-71
2023/03/26 20:28:30;;;;;;;;;4.00;4.00;;;;;;;;5088274;28;13303;-72
2023/03/26 20:31:00;;;;;;;;;4.00;3.33;;;;;;;;5085686;28;13634;-72
2023/03/26 20:33:26;;;;;;;;;3.00;3.00;;;;;;;;5085555;28;13267;-71
2023/03/26 20:35:55;;;;;;;;;3.00;3.00;;;;;;;;5087728;28;13387;-72
2023/03/26 20:38:21;;;;;;;;;3.00;3.00;;;;;;;;5087971;28;13541;-71
2023/03/26 20:40:47;;;;;;;;;9.67;6.67;;;;;;;;5083705;28;13544;-71
2023/03/26 20:43:17;;;;;;;;;6.20;5.60;;;;;;;;5087474;28;14003;-70
2023/03/26 20:45:44;;;;;;;;;3.40;3.20;;;;;;;;5087651;28;13287;-71
2023/03/26 20:48:10;;;;;;;;;3.00;3.00;;;;;;;;5087778;28;13506;-71
2023/03/26 20:50:43;;;;;;;;;6.25;5.50;;;;;;;;5085763;28;14336;-70
2023/03/26 20:53:12;;;;;;;;;2.00;2.00;;;;;;;;5087588;28;13536;-71
2023/03/26 20:55:38;;;;;;;;;7.00;4.00;;;;;;;;5087410;28;13441;-71
2023/03/26 20:58:03;;;;;;;;;8.00;3.75;;;;;;;;5087613;28;13268;-71
2023/03/26 21:00:28;;;;;;;;;6.25;3.25;;;;;;;;5084566;28;14587;-71
2023/03/26 21:02:55;;;;;;;;;6.75;2.50;;;;;;;;5087501;28;14097;-70
2023/03/26 21:05:24;;;;;;;;;3.80;2.00;;;;;;;;5087352;28;13491;-74
2023/03/26 21:07:56;;;;;;;;;3.00;3.00;;;;;;;;5094468;28;13332;-72
2023/03/26 21:10:24;;;;;;;;;3.60;3.60;;;;;;;;5087235;28;13457;-73
2023/03/26 21:12:59;;;;;;;;;6.00;3.80;;;;;;;;5087139;28;13334;-71
2023/03/26 21:15:25;;;;;;;;;5.00;4.00;;;;;;;;5086853;28;13442;-73
2023/03/26 21:17:51;;;;;;;;;9.50;6.00;;;;;;;;5085893;28;13544;-71
2023/03/26 21:20:19;;;;;;;;;6.80;6.80;;;;;;;;5068877;28;13573;-72
2023/03/26 21:22:55;;;;;;;;;3.40;3.40;;;;;;;;5082848;28;13485;-73
2023/03/26 21:25:39;;;;;;;;;4.00;3.00;;;;;;;;5086985;28;13429;-73
2023/03/26 21:28:22;;;;;;;;;6.25;4.50;;;;;;;;5083957;28;13346;-72
2023/03/26 21:30:48;;;;;;;;;3.80;3.80;;;;;;;;5089691;28;13320;-73
2023/03/26 21:33:13;;;;;;;;;3.25;3.25;;;;;;;;5084261;28;13298;-74
2023/03/26 21:35:39;;;;;;;;;6.00;3.00;;;;;;;;5084882;28;13597;-74
2023/03/26 21:38:08;;;;;;;;;7.80;6.20;;;;;;;;5084724;28;14227;-75
2023/03/26 21:40:34;;;;;;;;;2.00;2.00;;;;;;;;5066139;28;13301;-73
2023/03/26 21:42:59;;;;;;;;;4.50;3.25;;;;;;;;5084505;28;13299;-74
2023/03/26 21:45:25;;;;;;;;;6.50;6.00;;;;;;;;5084572;28;13310;-73
2023/03/26 21:47:51;;;;;;;;;9.40;6.40;;;;;;;;5086375;28;14033;-73
2023/03/26 21:50:17;;;;;;;;;5.00;3.00;;;;;;;;5086442;28;13305;-73
2023/03/26 21:52:49;;;;;;;;;2.00;2.00;;;;;;;;5084148;28;13214;-73
2023/03/26 21:55:22;;;;;;;;;6.00;6.00;;;;;;;;5084833;28;13593;-72
2023/03/26 21:58:07;;;;;;;;;2.80;2.00;;;;;;;;5083414;28;13602;-73
2023/03/26 22:00:52;;;;;;;;;3.60;3.60;;;;;;;;5083739;28;14032;-72
2023/03/26 22:03:26;;;;;;;;;12.00;4.00;;;;;;;;5084824;28;13964;-73
2023/03/26 22:06:13;;;;;;;;;3.00;3.00;;;;;;;;5084337;28;13389;-72
2023/03/26 22:08:39;;;;;;;;;3.20;3.20;;;;;;;;5085716;28;13298;-73
2023/03/26 22:11:11;;;;;;;;;7.75;4.00;;;;;;;;5086431;28;13283;-72
2023/03/26 22:13:39;;;;;;;;;4.00;3.80;;;;;;;;5069189;28;13670;-71
2023/03/26 22:16:05;;;;;;;;;3.00;3.00;;;;;;;;5087406;28;13270;-72
2023/03/26 22:18:31;;;;;;;;;3.75;3.75;;;;;;;;5087495;28;13251;-71
2023/03/26 22:20:57;;;;;;;;;3.00;3.00;;;;;;;;5087272;28;13317;-71
2023/03/26 22:23:23;;;;;;;;;6.00;3.00;;;;;;;;5087345;28;13490;-71
2023/03/26 22:25:48;;;;;;;;;4.50;3.50;;;;;;;;5087183;28;13277;-70
2023/03/26 22:28:14;;;;;;;;;2.67;2.33;;;;;;;;5102384;28;13440;-71
2023/03/26 22:30:39;;;;;;;;;7.50;6.75;;;;;;;;5087029;28;13261;-72
2023/03/26 22:33:07;;;;;;;;;7.00;4.00;;;;;;;;5086877;28;13286;-76
2023/03/26 22:35:32;;;;;;;;;6.25;3.00;;;;;;;;5087067;28;13374;-73
2023/03/26 22:37:57;;;;;;;;;4.00;3.00;;;;;;;;5086991;28;13390;-73
2023/03/26 22:40:23;;;;;;;;;2.00;2.00;;;;;;;;5087036;28;13279;-72
2023/03/26 22:42:49;;;;;;;;;3.25;2.25;;;;;;;;5102826;28;13305;-73
2023/03/26 22:45:15;;;;;;;;;6.20;3.00;;;;;;;;5086542;28;13279;-73
2023/03/26 22:47:41;;;;;;;;;4.00;3.00;;;;;;;;5086551;28;13333;-73
2023/03/26 22:50:08;;;;;;;;;5.00;3.00;;;;;;;;5086653;28;13275;-72
2023/03/26 22:52:34;;;;;;;;;6.00;4.00;;;;;;;;5086005;28;13310;-73
2023/03/26 22:54:59;;;;;;;;;2.80;2.80;;;;;;;;5086551;28;13258;-72
2023/03/26 22:57:25;;;;;;;;;3.75;3.00;;;;;;;;5085229;28;13504;-73
2023/03/26 22:59:50;;;;;;;;;7.50;4.50;;;;;;;;5086612;28;13313;-73
2023/03/26 23:02:16;;;;;;;;;3.75;2.75;;;;;;;;5086143;28;13351;-73
2023/03/26 23:04:42;;;;;;;;;6.00;4.00;;;;;;;;5086263;28;13230;-73
2023/03/26 23:07:08;;;;;;;;;5.50;4.00;;;;;;;;5086163;28;13287;-73
2023/03/26 23:09:35;;;;;;;;;4.00;3.00;;;;;;;;5085036;28;13268;-73
2023/03/26 23:12:01;;;;;;;;;5.80;3.00;;;;;;;;5086225;28;13263;-72
2023/03/26 23:14:27;;;;;;;;;4.00;2.25;;;;;;;;5086237;28;13435;-72
2023/03/26 23:16:52;;;;;;;;;6.20;4.00;;;;;;;;5086139;28;13248;-73
2023/03/26 23:19:18;;;;;;;;;3.00;2.00;;;;;;;;5085412;28;13502;-73
2023/03/26 23:21:43;;;;;;;;;3.67;3.67;;;;;;;;5085767;28;13245;-73
2023/03/26 23:24:08;;;;;;;;;5.00;2.00;;;;;;;;5085955;28;14092;-73
2023/03/26 23:26:34;;;;;;;;;2.00;2.00;;;;;;;;5085926;28;13423;-72
2023/03/26 23:29:00;;;;;;;;;9.00;6.50;;;;;;;;5085834;28;13256;-72
2023/03/26 23:31:26;;;;;;;;;3.00;3.00;;;;;;;;5086056;28;13297;-73
2023/03/26 23:33:51;;;;;;;;;6.00;3.67;;;;;;;;5085857;28;13261;-72
2023/03/26 23:36:18;;;;;;;;;3.60;3.60;;;;;;;;5086025;28;14050;-73
2023/03/26 23:38:47;;;;;;;;;6.67;4.00;;;;;;;;5085292;28;13386;-72
2023/03/26 23:41:13;;;;;;;;;7.50;3.00;;;;;;;;5086007;28;13226;-74
2023/03/26 23:43:40;;;;;;;;;3.25;3.00;;;;;;;;5084960;28;13290;-75
2023/03/26 23:46:09;;;;;;;;;3.00;3.00;;;;;;;;5086057;28;13322;-75
2023/03/26 23:48:34;;;;;;;;;4.60;3.00;;;;;;;;5085637;28;13281;-75
2023/03/26 23:51:00;;;;;;;;;3.50;3.50;;;;;;;;5086113;28;14081;-75
2023/03/26 23:53:26;;;;;;;;;3.00;2.00;;;;;;;;5084523;28;13284;-75
2023/03/26 23:55:58;;;;;;;;;4.80;3.00;;;;;;;;5085640;28;13260;-74